createdAt,value
2022-09-20T00:00:33.396Z,9.20
2022-09-20T00:01:35.869Z,6.03
2022-09-20T00:02:38.166Z,8.05
2022-09-20T00:03:46.483Z,9.43
2022-09-20T00:04:49.539Z,5.22
2022-09-20T00:05:51.739Z,9.27
2022-09-20T00:06:53.859Z,5.57
2022-09-20T00:07:55.968Z,10.95
2022-09-20T00:08:59.627Z,9.60
2022-09-20T00:10:01.819Z,7.80
2022-09-20T00:11:06.669Z,11.93
2022-09-20T00:12:09.194Z,9.73
2022-09-20T00:13:13.627Z,12.80
2022-09-20T00:14:15.803Z,14.02
2022-09-20T00:15:18.116Z,8.02
2022-09-20T00:16:23.952Z,9.23
2022-09-20T00:17:26.130Z,8.32
2022-09-20T00:18:28.285Z,13.15
2022-09-20T00:19:30.671Z,13.75
2022-09-20T00:20:32.764Z,8.00
2022-09-20T00:21:36.441Z,16.10
2022-09-20T00:22:38.618Z,13.45
2022-09-20T00:23:40.710Z,6.80
2022-09-20T00:24:45.641Z,14.57
2022-09-20T00:26:11.563Z,8.93
2022-09-20T00:27:14.020Z,9.02
2022-09-20T00:28:16.118Z,12.05
2022-09-20T00:29:18.260Z,10.65
2022-09-20T00:30:21.045Z,12.43
2022-09-20T00:31:23.328Z,10.63
2022-09-20T00:32:25.498Z,13.75
2022-09-20T00:33:46.233Z,8.68
2022-09-20T00:35:06.683Z,11.82
2022-09-20T00:36:08.797Z,9.25
2022-09-20T00:37:10.952Z,7.70
2022-09-20T00:38:14.478Z,9.00
2022-09-20T00:39:17.347Z,13.57
2022-09-20T00:40:21.163Z,6.90
2022-09-20T00:41:23.427Z,12.60
2022-09-20T00:42:30.209Z,16.70
2022-09-20T00:43:41.007Z,12.48
2022-09-20T00:44:43.170Z,9.57
2022-09-20T00:45:49.112Z,10.98
2022-09-20T00:46:51.549Z,16.80
2022-09-20T00:48:07.878Z,11.25
2022-09-20T00:49:23.387Z,12.70
2022-09-20T00:50:34.827Z,8.60
2022-09-20T00:51:40.090Z,10.75
2022-09-20T00:52:46.288Z,6.80
2022-09-20T00:53:50.744Z,7.95
2022-09-20T00:54:53.705Z,12.07
2022-09-20T00:56:00.885Z,11.82
2022-09-20T00:57:03.181Z,14.35
2022-09-20T00:58:06.433Z,9.75
2022-09-20T00:59:16.557Z,8.00
2022-09-20T01:00:18.756Z,13.55
2022-09-20T01:01:21.031Z,7.78
2022-09-20T01:02:27.753Z,6.53
2022-09-20T01:03:33.012Z,9.20
2022-09-20T01:04:38.946Z,7.32
2022-09-20T01:05:44.527Z,8.35
2022-09-20T01:06:47.246Z,9.20
2022-09-20T01:07:51.651Z,9.25
2022-09-20T01:08:58.860Z,8.88
2022-09-20T01:10:01.542Z,4.68
2022-09-20T01:11:03.745Z,5.88
2022-09-20T01:12:12.281Z,5.95
2022-09-20T01:13:14.765Z,16.58
2022-09-20T01:14:22.184Z,10.27
2022-09-20T01:15:28.029Z,8.93
2022-09-20T01:16:32.477Z,8.95
2022-09-20T01:17:39.125Z,5.72
2022-09-20T01:18:42.435Z,9.18
2022-09-20T01:20:03.138Z,7.47
2022-09-20T01:21:07.321Z,11.75
2022-09-20T01:22:32.404Z,4.30
2022-09-20T01:23:49.828Z,14.52
2022-09-20T01:25:27.192Z,11.90
2022-09-20T01:26:47.901Z,11.13
2022-09-20T01:27:54.050Z,10.77
2022-09-20T01:29:25.856Z,10.60
2022-09-20T01:30:40.293Z,11.57
2022-09-20T01:31:53.312Z,17.80
2022-09-20T01:33:15.736Z,9.00
2022-09-20T01:34:40.631Z,12.05
2022-09-20T01:35:45.634Z,14.18
2022-09-20T01:36:56.242Z,10.82
2022-09-20T01:38:11.886Z,6.10
2022-09-20T01:39:36.730Z,11.20
2022-09-20T01:40:59.644Z,8.07
2022-09-20T01:42:09.065Z,14.95
2022-09-20T01:43:40.562Z,14.07
2022-09-20T01:44:53.033Z,7.45
2022-09-20T01:45:56.241Z,7.43
2022-09-20T01:47:10.911Z,12.30
2022-09-20T01:48:33.742Z,6.95
2022-09-20T01:49:50.929Z,8.38
2022-09-20T01:51:29.861Z,8.65
2022-09-20T01:52:37.813Z,7.28
2022-09-20T01:53:46.017Z,11.35
2022-09-20T01:55:25.711Z,5.78
2022-09-20T01:56:30.849Z,5.57
2022-09-20T01:58:07.058Z,6.70
2022-09-20T01:59:24.861Z,6.88
2022-09-20T02:00:31.851Z,11.07
2022-09-20T02:02:06.110Z,8.77
2022-09-20T02:03:42.196Z,7.55
2022-09-20T02:04:59.856Z,10.13
2022-09-20T02:06:13.791Z,6.43
2022-09-20T02:07:47.269Z,5.45
2022-09-20T02:09:10.912Z,9.32
2022-09-20T02:10:40.748Z,10.30
2022-09-20T02:12:22.986Z,6.90
2022-09-20T02:13:30.153Z,13.20
2022-09-20T02:14:43.099Z,7.32
2022-09-20T02:16:10.100Z,11.20
2022-09-20T02:17:32.061Z,8.80
2022-09-20T02:18:34.140Z,10.77
2022-09-20T02:20:07.505Z,9.43
2022-09-20T02:21:33.012Z,13.93
2022-09-20T02:23:22.386Z,9.43
2022-09-20T02:24:38.790Z,9.75
2022-09-20T02:25:53.005Z,5.72
2022-09-20T02:27:23.035Z,6.65
2022-09-20T02:28:46.174Z,5.30
2022-09-20T02:29:52.850Z,7.90
2022-09-20T02:31:31.238Z,4.63
2022-09-20T02:32:51.874Z,8.50
2022-09-20T02:34:26.354Z,14.73
2022-09-20T02:35:45.022Z,11.48
2022-09-20T02:36:54.210Z,14.90
2022-09-20T02:38:18.152Z,6.15
2022-09-20T02:39:34.925Z,10.32
2022-09-20T02:40:55.875Z,12.85
2022-09-20T02:42:25.025Z,13.38
2022-09-20T02:43:56.126Z,9.60
2022-09-20T02:45:23.589Z,8.40
2022-09-20T02:46:28.682Z,9.15
2022-09-20T02:47:38.275Z,12.20
2022-09-20T02:49:12.935Z,16.15
2022-09-20T02:50:21.690Z,11.02
2022-09-20T02:52:00.132Z,12.40
2022-09-20T02:53:14.499Z,14.82
2022-09-20T02:54:31.803Z,5.97
2022-09-20T02:55:54.169Z,18.83
2022-09-20T02:57:05.737Z,8.70
2022-09-20T02:58:42.550Z,8.80
2022-09-20T03:00:02.139Z,6.65
2022-09-20T03:01:13.692Z,7.40
2022-09-20T03:02:32.775Z,6.13
2022-09-20T03:03:52.886Z,8.35
2022-09-20T03:05:30.758Z,11.13
2022-09-20T03:06:50.931Z,10.85
2022-09-20T03:08:03.154Z,10.13
2022-09-20T03:09:30.495Z,4.97
2022-09-20T03:10:47.492Z,12.45
2022-09-20T03:12:14.553Z,9.05
2022-09-20T03:13:38.376Z,5.18
2022-09-20T03:14:49.584Z,13.93
2022-09-20T03:16:10.445Z,14.48
2022-09-20T03:17:31.154Z,7.97
2022-09-20T03:18:42.459Z,6.78
2022-09-20T03:19:56.859Z,5.70
2022-09-20T03:21:22.613Z,9.40
2022-09-20T03:22:46.495Z,12.23
2022-09-20T03:24:10.028Z,8.32
2022-09-20T03:25:27.302Z,8.00
2022-09-20T03:26:41.033Z,8.70
2022-09-20T03:27:47.532Z,11.73
2022-09-20T03:29:16.508Z,10.88
2022-09-20T03:30:54.292Z,10.70
2022-09-20T03:31:56.480Z,12.98
2022-09-20T03:33:11.069Z,13.00
2022-09-20T03:34:39.234Z,12.80
2022-09-20T03:36:00.127Z,11.07
2022-09-20T03:37:27.199Z,4.70
2022-09-20T03:39:11.411Z,8.10
2022-09-20T03:40:45.702Z,6.90
2022-09-20T03:42:00.681Z,5.05
2022-09-20T03:43:44.743Z,6.60
2022-09-20T03:45:02.216Z,9.07
2022-09-20T03:46:21.238Z,11.07
2022-09-20T03:47:26.305Z,8.18
2022-09-20T03:48:53.536Z,11.48
2022-09-20T03:50:34.606Z,3.88
2022-09-20T03:52:01.919Z,8.82
2022-09-20T03:53:22.285Z,5.68
2022-09-20T03:54:58.938Z,7.20
2022-09-20T03:56:36.824Z,6.47
2022-09-20T03:57:57.471Z,3.78
2022-09-20T03:59:11.788Z,7.65
2022-09-20T04:00:50.473Z,9.10
2022-09-20T04:02:21.183Z,6.15
2022-09-20T04:04:00.758Z,4.03
2022-09-20T04:05:12.367Z,6.57
2022-09-20T04:06:42.162Z,8.25
2022-09-20T04:08:07.585Z,8.35
2022-09-20T04:09:24.682Z,9.13
2022-09-20T04:10:59.289Z,5.75
2022-09-20T04:12:05.436Z,4.18
2022-09-20T04:13:25.663Z,4.28
2022-09-20T04:14:57.533Z,4.60
2022-09-20T04:16:06.591Z,2.90
2022-09-20T04:17:21.069Z,3.50
2022-09-20T04:18:47.786Z,4.15
2022-09-20T04:19:58.601Z,3.50
2022-09-20T04:21:15.644Z,6.15
2022-09-20T04:22:58.469Z,4.82
2022-09-20T04:24:41.937Z,4.45
2022-09-20T04:25:48.260Z,3.22
2022-09-20T04:26:55.573Z,4.55
2022-09-20T04:28:03.005Z,8.13
2022-09-20T04:29:26.708Z,7.78
2022-09-20T04:30:31.951Z,11.43
2022-09-20T04:31:54.119Z,8.88
2022-09-20T04:33:00.238Z,8.20
2022-09-20T04:34:07.029Z,9.60
2022-09-20T04:35:47.884Z,4.00
2022-09-20T04:36:49.946Z,6.75
2022-09-20T04:37:53.588Z,9.80
2022-09-20T04:39:02.063Z,8.02
2022-09-20T04:40:22.711Z,8.38
2022-09-20T04:41:51.169Z,6.03
2022-09-20T04:43:15.153Z,4.32
2022-09-20T04:45:03.593Z,3.70
2022-09-20T04:46:42.363Z,10.13
2022-09-20T04:48:22.613Z,3.97
2022-09-20T04:49:49.407Z,3.55
2022-09-20T04:51:21.934Z,3.55
2022-09-20T04:52:58.058Z,4.03
2022-09-20T04:54:15.284Z,6.18
2022-09-20T04:55:23.432Z,7.28
2022-09-20T04:56:31.350Z,4.57
2022-09-20T04:57:36.754Z,3.70
2022-09-20T04:58:47.568Z,6.50
2022-09-20T05:01:04.725Z,5.63
2022-09-20T05:02:54.576Z,5.93
2022-09-20T05:04:11.673Z,4.53
2022-09-20T05:05:49.242Z,4.53
2022-09-20T05:07:15.189Z,7.50
2022-09-20T05:09:01.923Z,3.33
2022-09-20T05:10:28.806Z,4.93
2022-09-20T05:11:43.893Z,6.70
2022-09-20T05:12:52.184Z,2.63
2022-09-20T05:14:06.488Z,5.25
2022-09-20T05:15:26.513Z,4.70
2022-09-20T05:17:07.154Z,7.35
2022-09-20T05:18:35.722Z,5.32
2022-09-20T05:20:02.951Z,4.13
2022-09-20T05:21:28.712Z,6.13
2022-09-20T05:22:31.328Z,6.18
2022-09-20T05:23:39.632Z,5.75
2022-09-20T05:24:52.648Z,4.10
2022-09-20T05:26:39.832Z,5.13
2022-09-20T05:27:57.452Z,8.95
2022-09-20T05:29:14.398Z,7.80
2022-09-20T05:30:37.997Z,4.28
2022-09-20T05:32:38.705Z,5.88
2022-09-20T05:33:54.542Z,5.78
2022-09-20T05:35:34.032Z,4.25
2022-09-20T05:36:38.896Z,9.23
2022-09-20T05:37:56.703Z,6.20
2022-09-20T05:39:29.796Z,5.72
2022-09-20T05:40:46.102Z,9.50
2022-09-20T05:41:56.951Z,4.35
2022-09-20T05:44:26.670Z,4.78
2022-09-20T05:45:53.749Z,7.43
2022-09-20T05:46:59.210Z,3.65
2022-09-20T05:48:18.151Z,5.38
2022-09-20T05:49:39.548Z,7.25
2022-09-20T05:51:17.040Z,5.80
2022-09-20T05:52:37.698Z,11.63
2022-09-20T05:53:42.681Z,11.93
2022-09-20T05:55:12.706Z,7.90
2022-09-20T05:56:30.167Z,8.25
2022-09-20T05:57:41.211Z,7.22
2022-09-20T05:59:24.224Z,6.40
2022-09-20T06:00:32.582Z,10.60
2022-09-20T06:01:42.007Z,6.82
2022-09-20T06:03:09.454Z,5.38
2022-09-20T06:04:29.817Z,4.45
2022-09-20T06:05:58.876Z,4.97
2022-09-20T06:07:19.298Z,10.73
2022-09-20T06:08:43.234Z,6.20
2022-09-20T06:10:25.691Z,7.13
2022-09-20T06:11:58.496Z,5.15
2022-09-20T06:13:11.696Z,9.27
2022-09-20T06:14:19.670Z,6.53
2022-09-20T06:15:54.776Z,6.72
2022-09-20T06:17:21.815Z,4.45
2022-09-20T06:18:31.780Z,7.05
2022-09-20T06:19:46.471Z,4.40
2022-09-20T06:21:00.533Z,10.15
2022-09-20T06:22:27.765Z,4.38
2022-09-20T06:23:31.467Z,4.55
2022-09-20T06:25:14.951Z,4.88
2022-09-20T06:26:25.805Z,6.80
2022-09-20T06:28:43.121Z,5.82
2022-09-20T06:29:53.037Z,4.57
2022-09-20T06:30:57.185Z,10.02
2022-09-20T06:31:59.472Z,4.43
2022-09-20T06:33:15.880Z,10.32
2022-09-20T06:34:18.020Z,8.32
2022-09-20T06:35:22.522Z,5.85
2022-09-20T06:36:42.976Z,7.13
2022-09-20T06:38:17.739Z,3.55
2022-09-20T06:39:59.799Z,3.60
2022-09-20T06:41:22.424Z,6.13
2022-09-20T06:42:27.257Z,7.10
2022-09-20T06:43:31.535Z,6.25
2022-09-20T06:44:33.642Z,7.97
2022-09-20T06:45:36.041Z,4.70
2022-09-20T06:46:38.501Z,4.97
2022-09-20T06:47:41.008Z,5.80
2022-09-20T06:48:43.145Z,8.18
2022-09-20T06:49:46.816Z,8.38
2022-09-20T06:50:49.866Z,3.30
2022-09-20T06:51:52.435Z,6.85
2022-09-20T06:52:55.566Z,7.03
2022-09-20T06:53:57.765Z,5.05
2022-09-20T06:55:00.045Z,6.13
2022-09-20T06:56:02.296Z,7.38
2022-09-20T06:57:06.554Z,6.00
2022-09-20T06:58:09.761Z,4.53
2022-09-20T06:59:12.773Z,4.15
2022-09-20T07:00:15.986Z,8.90
2022-09-20T07:01:29.347Z,9.70
2022-09-20T07:02:32.491Z,7.40
2022-09-20T07:03:34.657Z,5.80
2022-09-20T07:04:37.291Z,9.48
2022-09-20T07:05:39.746Z,4.28
2022-09-20T07:06:41.925Z,7.13
2022-09-20T07:07:44.232Z,3.22
2022-09-20T07:08:46.927Z,5.35
2022-09-20T07:09:49.085Z,4.10
2022-09-20T07:10:51.178Z,4.57
2022-09-20T07:11:53.287Z,2.65
2022-09-20T07:12:57.225Z,3.35
2022-09-20T07:13:59.425Z,5.05
2022-09-20T07:15:01.554Z,7.72
2022-09-20T07:16:05.923Z,4.45
2022-09-20T07:17:08.098Z,5.15
2022-09-20T07:18:10.230Z,4.38
2022-09-20T07:19:12.368Z,4.97
2022-09-20T07:20:16.547Z,4.05
2022-09-20T07:21:22.909Z,6.20
2022-09-20T07:22:25.527Z,4.15
2022-09-20T07:23:29.869Z,4.88
2022-09-20T07:24:32.297Z,10.52
2022-09-20T07:25:35.048Z,4.28
2022-09-20T07:26:38.879Z,3.97
2022-09-20T07:27:41.273Z,7.30
2022-09-20T07:28:43.469Z,9.77
2022-09-20T07:29:46.187Z,4.30
2022-09-20T07:30:48.339Z,6.45
2022-09-20T07:31:50.812Z,4.45
2022-09-20T07:32:53.599Z,6.32
2022-09-20T07:33:56.292Z,11.70
2022-09-20T07:34:58.451Z,3.20
2022-09-20T07:36:00.780Z,4.97
2022-09-20T07:37:03.253Z,6.45
2022-09-20T07:38:05.417Z,4.80
2022-09-20T07:39:07.599Z,4.90
2022-09-20T07:40:11.466Z,6.07
2022-09-20T07:41:13.952Z,3.38
2022-09-20T07:42:16.349Z,4.50
2022-09-20T07:43:18.405Z,7.43
2022-09-20T07:44:27.832Z,9.02
2022-09-20T07:45:31.132Z,4.85
2022-09-20T07:46:36.053Z,3.28
2022-09-20T07:47:41.201Z,2.40
2022-09-20T07:48:43.367Z,2.97
2022-09-20T07:49:45.482Z,7.72
2022-09-20T07:50:52.987Z,4.50
2022-09-20T07:51:55.165Z,5.55
2022-09-20T07:52:57.989Z,7.07
2022-09-20T07:54:00.132Z,2.25
2022-09-20T07:55:02.260Z,6.00
2022-09-20T07:56:12.345Z,4.78
2022-09-20T07:57:14.462Z,4.25
2022-09-20T07:58:16.570Z,5.63
2022-09-20T07:59:18.755Z,5.35
2022-09-20T08:00:20.991Z,4.55
2022-09-20T08:01:23.531Z,3.92
2022-09-20T08:02:25.681Z,3.70
2022-09-20T08:03:31.356Z,5.78
2022-09-20T08:04:33.499Z,6.55
2022-09-20T08:05:35.739Z,8.82
2022-09-20T08:06:40.021Z,7.25
2022-09-20T08:07:42.143Z,4.43
2022-09-20T08:08:44.729Z,4.75
2022-09-20T08:09:46.844Z,4.25
2022-09-20T08:10:49.029Z,4.95
2022-09-20T08:11:51.261Z,4.30
2022-09-20T08:14:17.887Z,7.53
2022-09-20T08:15:20.204Z,4.97
2022-09-20T08:16:23.133Z,10.52
2022-09-20T08:17:25.385Z,5.70
2022-09-20T08:18:27.978Z,4.60
2022-09-20T08:19:30.400Z,10.40
2022-09-20T08:20:37.016Z,7.88
2022-09-20T08:21:39.774Z,7.38
2022-09-20T08:22:43.264Z,3.50
2022-09-20T08:23:48.287Z,4.18
2022-09-20T08:24:51.948Z,4.80
2022-09-20T08:25:56.935Z,5.20
2022-09-20T08:26:59.345Z,5.82
2022-09-20T08:28:01.745Z,1.35
2022-09-20T08:29:05.968Z,4.75
2022-09-20T08:30:09.105Z,3.60
2022-09-20T08:31:19.268Z,3.70
2022-09-20T08:32:21.548Z,2.65
2022-09-20T08:33:23.785Z,5.55
2022-09-20T08:34:25.873Z,2.58
2022-09-20T08:35:29.843Z,3.47
2022-09-20T08:36:36.443Z,6.82
2022-09-20T08:37:39.781Z,5.25
2022-09-20T08:40:11.124Z,4.28
2022-09-20T08:41:27.270Z,7.63
2022-09-20T08:42:42.069Z,5.45
2022-09-20T08:43:52.072Z,5.50
2022-09-20T08:45:00.903Z,5.85
2022-09-20T08:46:06.143Z,9.05
2022-09-20T08:47:20.119Z,8.70
2022-09-20T08:48:29.406Z,4.38
2022-09-20T08:49:32.357Z,5.07
2022-09-20T08:50:37.674Z,8.68
2022-09-20T08:51:48.669Z,10.30
2022-09-20T08:53:00.069Z,8.55
2022-09-20T08:54:04.489Z,4.55
2022-09-20T08:55:37.850Z,6.05
2022-09-20T08:56:40.910Z,6.13
2022-09-20T08:57:44.638Z,4.65
2022-09-20T08:58:47.302Z,4.60
2022-09-20T08:59:50.354Z,7.32
2022-09-20T09:00:53.187Z,4.28
2022-09-20T09:01:55.406Z,6.20
2022-09-20T09:03:01.012Z,3.08
2022-09-20T09:04:15.833Z,8.25
2022-09-20T09:05:33.791Z,5.38
2022-09-20T09:06:36.059Z,7.88
2022-09-20T09:07:38.334Z,3.33
2022-09-20T09:08:44.295Z,4.25
2022-09-20T09:09:48.566Z,3.42
2022-09-20T09:11:01.959Z,3.30
2022-09-20T09:12:04.772Z,3.08
2022-09-20T09:13:08.131Z,4.15
2022-09-20T09:14:51.373Z,9.30
2022-09-20T09:15:58.946Z,3.03
2022-09-20T09:17:01.363Z,2.67
2022-09-20T09:18:05.769Z,2.38
2022-09-20T09:19:45.087Z,2.83
2022-09-20T09:20:47.556Z,1.05
2022-09-20T09:21:49.691Z,5.78
2022-09-20T09:23:04.872Z,3.08
2022-09-20T09:24:19.394Z,3.15
2022-09-20T09:25:25.696Z,4.22
2022-09-20T09:26:35.105Z,4.53
2022-09-20T09:27:57.640Z,3.55
2022-09-20T09:29:22.910Z,2.72
2022-09-20T09:30:35.691Z,4.05
2022-09-20T09:31:39.682Z,2.28
2022-09-20T09:32:41.969Z,3.13
2022-09-20T09:33:45.438Z,2.35
2022-09-20T09:34:47.949Z,4.55
2022-09-20T09:35:59.068Z,3.38
2022-09-20T09:37:01.205Z,3.00
2022-09-20T09:38:03.675Z,3.63
2022-09-20T09:39:36.983Z,2.40
2022-09-20T09:40:50.224Z,3.53
2022-09-20T09:41:52.626Z,3.03
2022-09-20T09:42:57.469Z,4.45
2022-09-20T09:44:09.921Z,3.03
2022-09-20T09:45:28.743Z,4.05
2022-09-20T09:46:34.275Z,3.80
2022-09-20T09:47:37.394Z,3.42
2022-09-20T09:48:40.433Z,2.50
2022-09-20T09:50:00.321Z,3.15
2022-09-20T09:51:12.282Z,1.92
2022-09-20T09:52:24.594Z,2.85
2022-09-20T09:53:26.738Z,2.10
2022-09-20T09:54:38.033Z,2.72
2022-09-20T09:55:51.968Z,1.58
2022-09-20T09:57:22.186Z,3.70
2022-09-20T09:58:59.879Z,6.30
2022-09-20T10:00:21.222Z,4.13
2022-09-20T10:01:52.109Z,4.70
2022-09-20T10:03:12.939Z,4.40
2022-09-20T10:04:32.975Z,3.35
2022-09-20T10:05:39.718Z,5.17
2022-09-20T10:06:58.188Z,2.38
2022-09-20T10:08:21.237Z,2.67
2022-09-20T10:09:45.189Z,2.95
2022-09-20T10:11:15.094Z,3.58
2022-09-20T10:12:39.042Z,2.35
2022-09-20T10:14:20.062Z,3.47
2022-09-20T10:15:41.951Z,4.28
2022-09-20T10:17:17.736Z,2.75
2022-09-20T10:18:19.907Z,2.38
2022-09-20T10:19:43.221Z,1.90
2022-09-20T10:21:00.635Z,3.67
2022-09-20T10:22:35.112Z,2.70
2022-09-20T10:24:04.354Z,1.52
2022-09-20T10:25:33.887Z,1.98
2022-09-20T10:27:06.400Z,2.80
2022-09-20T10:28:27.960Z,2.45
2022-09-20T10:30:07.360Z,1.45
2022-09-20T10:31:25.999Z,3.42
2022-09-20T10:32:53.975Z,1.45
2022-09-20T10:34:25.009Z,4.35
2022-09-20T10:36:57.402Z,3.05
2022-09-20T10:38:08.229Z,2.47
2022-09-20T10:39:16.269Z,2.75
2022-09-20T10:40:59.380Z,2.45
2022-09-20T10:42:45.178Z,2.28
2022-09-20T10:43:53.183Z,3.72
2022-09-20T10:44:55.269Z,5.10
2022-09-20T10:46:32.802Z,3.88
2022-09-20T10:48:01.434Z,3.47
2022-09-20T10:49:28.194Z,2.05
2022-09-20T10:50:43.590Z,4.03
2022-09-20T10:52:00.761Z,2.58
2022-09-20T10:53:25.883Z,2.38
2022-09-20T10:54:33.786Z,5.10
2022-09-20T10:55:40.311Z,3.88
2022-09-20T10:56:49.256Z,4.43
2022-09-20T10:58:13.736Z,2.20
2022-09-20T10:59:27.833Z,3.22
2022-09-20T11:00:47.431Z,2.47
2022-09-20T11:02:14.880Z,2.47
2022-09-20T11:03:16.972Z,5.05
2022-09-20T11:04:25.057Z,4.65
2022-09-20T11:05:30.970Z,1.83
2022-09-20T11:07:07.382Z,2.67
2022-09-20T11:08:22.673Z,0.77
2022-09-20T11:09:30.159Z,3.10
2022-09-20T11:10:45.076Z,2.35
2022-09-20T11:11:52.702Z,2.80
2022-09-20T11:13:01.231Z,1.50
2022-09-20T11:14:11.035Z,2.10
2022-09-20T11:15:23.747Z,2.28
2022-09-20T11:16:41.799Z,2.45
2022-09-20T11:18:00.397Z,1.90
2022-09-20T11:19:23.515Z,3.47
2022-09-20T11:20:32.191Z,1.92
2022-09-20T11:21:38.360Z,1.52
2022-09-20T11:22:55.735Z,2.95
2022-09-20T11:24:12.160Z,3.08
2022-09-20T11:25:29.449Z,2.05
2022-09-20T11:26:38.542Z,3.67
2022-09-20T11:28:06.131Z,4.15
2022-09-20T11:29:32.339Z,4.53
2022-09-20T11:30:43.362Z,4.95
2022-09-20T11:31:49.107Z,7.60
2022-09-20T11:33:04.661Z,3.42
2022-09-20T11:34:13.562Z,5.50
2022-09-20T11:35:33.607Z,4.38
2022-09-20T11:36:44.010Z,3.77
2022-09-20T11:38:09.525Z,3.40
2022-09-20T11:39:20.034Z,3.10
2022-09-20T11:40:31.466Z,5.38
2022-09-20T11:41:34.047Z,3.05
2022-09-20T11:42:41.234Z,4.75
2022-09-20T11:43:45.987Z,3.25
2022-09-20T11:44:48.500Z,3.35
2022-09-20T11:45:55.434Z,4.20
2022-09-20T11:47:07.146Z,2.50
2022-09-20T11:48:18.260Z,3.60
2022-09-20T11:49:30.253Z,3.88
2022-09-20T11:50:35.810Z,5.68
2022-09-20T11:52:00.558Z,4.05
2022-09-20T11:53:15.132Z,4.75
2022-09-20T11:54:30.355Z,5.00
2022-09-20T11:55:59.041Z,4.30
2022-09-20T11:57:01.262Z,2.55
2022-09-20T11:58:12.950Z,3.13
2022-09-20T11:59:40.397Z,6.38
2022-09-20T12:00:47.854Z,3.65
2022-09-20T12:01:56.827Z,2.80
2022-09-20T12:03:00.211Z,3.15
2022-09-20T12:04:39.042Z,2.70
2022-09-20T12:05:42.181Z,2.90
2022-09-20T12:06:45.633Z,2.33
2022-09-20T12:07:54.390Z,2.75
2022-09-20T12:08:59.945Z,6.45
2022-09-20T12:10:23.343Z,3.40
2022-09-20T12:11:32.227Z,3.88
2022-09-20T12:12:45.256Z,5.03
2022-09-20T12:13:59.210Z,3.88
2022-09-20T12:15:04.271Z,3.83
2022-09-20T12:16:08.434Z,3.65
2022-09-20T12:17:47.809Z,3.95
2022-09-20T12:18:53.918Z,1.90
2022-09-20T12:19:56.064Z,4.72
2022-09-20T12:21:00.898Z,4.50
2022-09-20T12:22:05.779Z,4.93
2022-09-20T12:23:42.568Z,6.18
2022-09-20T12:24:45.683Z,3.63
2022-09-20T12:26:04.513Z,2.42
2022-09-20T12:27:41.320Z,1.95
2022-09-20T12:28:49.341Z,3.67
2022-09-20T12:29:54.215Z,4.32
2022-09-20T12:31:18.117Z,4.57
2022-09-20T12:32:33.875Z,2.88
2022-09-20T12:34:11.767Z,4.78
2022-09-20T12:35:36.011Z,4.20
2022-09-20T12:36:43.481Z,2.08
2022-09-20T12:37:45.648Z,3.75
2022-09-20T12:38:53.086Z,3.17
2022-09-20T12:39:55.905Z,4.60
2022-09-20T12:41:05.012Z,2.45
2022-09-20T12:42:10.166Z,2.88
2022-09-20T12:43:21.760Z,3.05
2022-09-20T12:44:37.437Z,3.03
2022-09-20T12:45:39.700Z,6.18
2022-09-20T12:46:50.983Z,3.13
2022-09-20T12:47:55.986Z,7.53
2022-09-20T12:49:57.314Z,3.28
2022-09-20T12:51:46.595Z,3.28
2022-09-20T12:52:58.639Z,2.85
2022-09-20T12:54:10.735Z,4.30
2022-09-20T12:55:34.941Z,2.38
2022-09-20T12:56:39.896Z,1.73
2022-09-20T12:57:42.785Z,2.25
2022-09-20T12:58:45.100Z,3.10
2022-09-20T12:59:57.681Z,10.63
2022-09-20T13:01:08.411Z,4.70
2022-09-20T13:02:57.180Z,9.30
2022-09-20T13:04:37.002Z,2.75
2022-09-20T13:05:47.220Z,5.45
2022-09-20T13:06:49.675Z,2.80
2022-09-20T13:08:01.963Z,2.70
2022-09-20T13:09:13.157Z,4.32
2022-09-20T13:10:27.028Z,2.22
2022-09-20T13:11:52.515Z,3.33
2022-09-20T13:13:01.238Z,3.00
2022-09-20T13:14:12.121Z,3.50
2022-09-20T13:15:19.854Z,3.40
2022-09-20T13:16:47.245Z,3.83
2022-09-20T13:17:55.142Z,5.18
2022-09-20T13:19:18.020Z,2.83
2022-09-20T13:20:29.925Z,4.00
2022-09-20T13:21:37.922Z,2.72
2022-09-20T13:22:45.404Z,4.03
2022-09-20T13:23:54.949Z,2.20
2022-09-20T13:24:59.995Z,2.65
2022-09-20T13:26:04.378Z,1.55
2022-09-20T13:27:13.220Z,5.55
2022-09-20T13:28:31.358Z,2.47
2022-09-20T13:29:42.370Z,2.72
2022-09-20T13:30:44.457Z,2.97
2022-09-20T13:31:46.638Z,4.50
2022-09-20T13:32:51.375Z,4.32
2022-09-20T13:33:53.969Z,3.88
2022-09-20T13:35:10.868Z,2.97
2022-09-20T13:36:13.780Z,3.33
2022-09-20T13:37:23.408Z,5.40
2022-09-20T13:38:30.106Z,4.07
2022-09-20T13:39:37.228Z,3.50
2022-09-20T13:40:44.641Z,5.95
2022-09-20T13:41:47.083Z,7.35
2022-09-20T13:42:52.437Z,5.28
2022-09-20T13:43:55.001Z,3.25
2022-09-20T13:44:58.733Z,5.85
2022-09-20T13:46:08.969Z,5.22
2022-09-20T13:47:27.516Z,2.58
2022-09-20T13:48:30.564Z,4.95
2022-09-20T13:49:32.849Z,8.43
2022-09-20T13:50:39.240Z,3.65
2022-09-20T13:51:43.438Z,5.43
2022-09-20T13:52:48.341Z,5.20
2022-09-20T13:53:50.642Z,5.20
2022-09-20T13:54:52.896Z,2.92
2022-09-20T13:55:55.607Z,4.95
2022-09-20T13:57:11.931Z,4.22
2022-09-20T13:58:25.380Z,2.63
2022-09-20T13:59:42.466Z,3.72
2022-09-20T14:00:51.825Z,4.35
2022-09-20T14:01:55.534Z,3.80
2022-09-20T14:02:59.188Z,2.88
2022-09-20T14:04:14.607Z,5.00
2022-09-20T14:05:19.308Z,6.30
2022-09-20T14:06:29.611Z,2.75
2022-09-20T14:07:32.729Z,3.65
2022-09-20T14:08:45.327Z,6.53
2022-09-20T14:09:47.430Z,4.35
2022-09-20T14:11:02.890Z,5.03
2022-09-20T14:12:06.356Z,3.97
2022-09-20T14:13:15.382Z,4.72
2022-09-20T14:14:22.355Z,3.28
2022-09-20T14:15:26.954Z,4.40
2022-09-20T14:16:37.882Z,4.57
2022-09-20T14:17:40.274Z,4.65
2022-09-20T14:18:44.076Z,5.30
2022-09-20T14:19:51.812Z,5.63
2022-09-20T14:20:55.397Z,3.65
2022-09-20T14:22:02.722Z,3.55
2022-09-20T14:23:05.048Z,4.82
2022-09-20T14:24:26.021Z,3.10
2022-09-20T14:26:36.323Z,8.82
2022-09-20T14:27:38.903Z,5.07
2022-09-20T14:28:41.063Z,2.47
2022-09-20T14:29:51.950Z,3.53
2022-09-20T14:31:11.766Z,7.00
2022-09-20T14:32:44.390Z,6.05
2022-09-20T14:33:54.897Z,6.93
2022-09-20T14:35:28.959Z,4.93
2022-09-20T14:36:31.544Z,4.32
2022-09-20T14:37:42.387Z,2.65
2022-09-20T14:40:00.791Z,3.45
2022-09-20T14:41:03.473Z,4.47
2022-09-20T14:42:18.836Z,7.50
2022-09-20T14:43:33.044Z,8.07
2022-09-20T14:44:36.873Z,4.65
2022-09-20T14:45:41.148Z,11.38
2022-09-20T14:46:43.324Z,3.70
2022-09-20T14:48:21.367Z,4.65
2022-09-20T14:49:26.413Z,4.15
2022-09-20T14:50:46.301Z,5.55
2022-09-20T14:51:49.710Z,4.30
2022-09-20T14:53:19.912Z,3.13
2022-09-20T14:54:30.824Z,7.72
2022-09-20T14:56:47.976Z,8.77
2022-09-20T14:57:50.341Z,8.80
2022-09-20T14:59:01.520Z,7.80
2022-09-20T15:00:16.352Z,7.00
2022-09-20T15:01:23.882Z,4.07
2022-09-20T15:02:26.776Z,4.13
2022-09-20T15:03:33.334Z,8.25
2022-09-20T15:04:37.910Z,9.88
2022-09-20T15:05:40.077Z,7.00
2022-09-20T15:06:42.952Z,7.35
2022-09-20T15:07:45.439Z,4.72
2022-09-20T15:08:47.730Z,8.30
2022-09-20T15:09:49.940Z,7.47
2022-09-20T15:10:52.139Z,3.83
2022-09-20T15:12:16.131Z,5.75
2022-09-20T15:13:18.459Z,5.80
2022-09-20T15:14:20.554Z,8.07
2022-09-20T15:15:23.177Z,3.80
2022-09-20T15:16:25.389Z,7.70
2022-09-20T15:17:27.561Z,5.80
2022-09-20T15:18:37.088Z,6.35
2022-09-20T15:19:39.209Z,5.07
2022-09-20T15:20:41.349Z,6.20
2022-09-20T15:21:43.747Z,6.95
2022-09-20T15:22:46.071Z,8.27
2022-09-20T15:23:48.425Z,6.63
2022-09-20T15:24:50.564Z,6.78
2022-09-20T15:25:55.152Z,3.45
2022-09-20T15:26:57.274Z,5.20
2022-09-20T15:27:59.883Z,6.18
2022-09-20T15:29:01.998Z,5.13
2022-09-20T15:30:04.372Z,7.03
2022-09-20T15:31:06.746Z,7.38
2022-09-20T15:32:11.932Z,8.90
2022-09-20T15:33:14.742Z,7.28
2022-09-20T15:34:16.975Z,6.13
2022-09-20T15:35:19.142Z,7.10
2022-09-20T15:36:21.302Z,7.07
2022-09-20T15:37:23.433Z,7.57
2022-09-20T15:38:27.052Z,7.88
2022-09-20T15:39:29.197Z,4.95
2022-09-20T15:40:32.277Z,7.65
2022-09-20T15:41:35.687Z,6.70
2022-09-20T15:42:41.457Z,6.68
2022-09-20T15:43:43.610Z,8.13
2022-09-20T15:44:46.185Z,5.10
2022-09-20T15:45:57.010Z,4.57
2022-09-20T15:48:03.039Z,4.53
2022-09-20T15:49:06.603Z,7.30
2022-09-20T15:50:09.615Z,15.50
2022-09-20T15:51:12.755Z,7.28
2022-09-20T15:52:14.897Z,20.85
2022-09-20T15:53:17.132Z,18.60
2022-09-20T15:54:19.358Z,5.25
2022-09-20T15:55:21.894Z,23.05
2022-09-20T15:56:27.371Z,3.22
2022-09-20T15:57:30.959Z,21.20
2022-09-20T15:58:36.142Z,7.57
2022-09-20T15:59:38.528Z,6.97
2022-09-20T16:00:40.779Z,6.20
2022-09-20T16:01:45.733Z,3.05
2022-09-20T16:02:51.174Z,9.25
2022-09-20T16:03:53.813Z,7.15
2022-09-20T16:04:55.982Z,4.13
2022-09-20T16:06:04.627Z,6.25
2022-09-20T16:07:07.233Z,2.50
2022-09-20T16:08:09.387Z,3.78
2022-09-20T16:09:11.869Z,3.95
2022-09-20T16:10:14.055Z,5.85
2022-09-20T16:11:22.648Z,6.15
2022-09-20T16:12:25.804Z,15.65
2022-09-20T16:13:28.390Z,30.77
2022-09-20T16:14:31.349Z,58.28